createdAt,value
2022-08-09T00:00:44.673Z,16.71
2022-08-09T00:01:48.390Z,16.71
2022-08-09T00:02:47.315Z,16.70
2022-08-09T00:04:06.367Z,16.65
2022-08-09T00:04:40.339Z,16.60
2022-08-09T00:06:19.336Z,16.59
2022-08-09T00:06:40.348Z,16.56
2022-08-09T00:07:44.834Z,16.55
2022-08-09T00:08:40.299Z,16.53
2022-08-09T00:09:39.301Z,16.52
2022-08-09T00:10:39.271Z,16.50
2022-08-09T00:12:03.402Z,16.49
2022-08-09T00:12:40.259Z,16.49
2022-08-09T00:13:40.845Z,16.48
2022-08-09T00:14:39.344Z,16.45
2022-08-09T00:15:58.111Z,16.48
2022-08-09T00:16:40.232Z,16.48
2022-08-09T00:18:05.547Z,16.49
2022-08-09T00:18:40.182Z,16.49
2022-08-09T00:19:39.197Z,16.49
2022-08-09T00:20:42.486Z,16.48
2022-08-09T00:21:56.126Z,16.44
2022-08-09T00:22:40.140Z,16.42
2022-08-09T00:23:56.194Z,16.42
2022-08-09T00:24:40.134Z,16.41
2022-08-09T00:25:39.105Z,16.37
2022-08-09T00:26:40.091Z,16.37
2022-08-09T00:27:42.989Z,16.34
2022-08-09T00:28:39.072Z,16.31
2022-08-09T00:30:16.285Z,16.30
2022-08-09T00:30:40.061Z,16.26
2022-08-09T00:31:59.578Z,16.30
2022-08-09T00:32:40.337Z,16.26
2022-08-09T00:33:49.217Z,16.23
2022-08-09T00:34:40.026Z,16.23
2022-08-09T00:35:43.324Z,16.23
2022-08-09T00:36:41.578Z,16.26
2022-08-09T00:37:38.964Z,16.23
2022-08-09T00:38:38.962Z,16.25
2022-08-09T00:40:09.049Z,16.18
2022-08-09T00:40:39.985Z,16.16
2022-08-09T00:44:13.010Z,16.15
2022-08-09T00:44:13.996Z,16.15
2022-08-09T00:44:15.773Z,16.12
2022-08-09T00:44:39.915Z,16.14
2022-08-09T00:45:38.876Z,16.12
2022-08-09T00:46:55.413Z,16.07
2022-08-09T00:47:39.946Z,16.11
2022-08-09T00:48:38.854Z,16.12
2022-08-09T00:49:38.836Z,16.06
2022-08-09T00:50:38.857Z,16.04
2022-08-09T00:51:54.609Z,16.04
2022-08-09T00:52:39.806Z,16.01
2022-08-09T00:53:38.795Z,16.00
2022-08-09T00:54:38.778Z,15.99
2022-08-09T00:56:05.014Z,15.96
2022-08-09T00:56:39.781Z,15.96
2022-08-09T00:57:38.747Z,15.92
2022-08-09T00:58:38.756Z,15.88
2022-08-09T00:59:41.082Z,15.88
2022-08-09T01:00:39.717Z,15.85
2022-08-09T01:01:44.944Z,15.84
2022-08-09T01:02:39.699Z,15.82
2022-08-09T01:03:45.517Z,15.82
2022-08-09T01:04:39.667Z,15.81
2022-08-09T01:05:53.324Z,15.81
2022-08-09T01:06:54.629Z,15.81
2022-08-09T01:08:00.247Z,15.81
2022-08-09T01:08:39.649Z,15.82
2022-08-09T01:09:39.608Z,15.84
2022-08-09T01:10:38.609Z,15.84
2022-08-09T01:11:38.589Z,15.84
2022-08-09T01:12:38.581Z,15.81
2022-08-09T01:13:53.281Z,15.79
2022-08-09T01:14:39.560Z,15.76
2022-08-09T01:15:40.859Z,15.75
2022-08-09T01:16:39.539Z,15.70
2022-08-09T01:17:38.523Z,15.66
2022-08-09T01:18:38.539Z,15.66
2022-08-09T01:19:51.811Z,15.60
2022-08-09T01:20:39.494Z,15.59
2022-08-09T01:21:44.696Z,15.59
2022-08-09T01:22:39.473Z,15.60
2022-08-09T01:24:02.874Z,15.56
2022-08-09T01:24:39.453Z,15.51
2022-08-09T01:25:41.644Z,15.46
2022-08-09T01:26:38.444Z,15.43
2022-08-09T01:27:38.415Z,15.39
2022-08-09T01:28:38.428Z,15.36
2022-08-09T01:29:54.841Z,15.35
2022-08-09T01:30:51.835Z,15.33
2022-08-09T01:32:30.029Z,15.31
2022-08-09T01:32:45.346Z,15.27
2022-08-09T01:33:39.365Z,15.27
2022-08-09T01:34:38.336Z,15.27
2022-08-09T01:35:39.206Z,15.26
2022-08-09T01:36:38.317Z,15.26
2022-08-09T01:38:05.562Z,15.26
2022-08-09T01:38:39.957Z,15.28
2022-08-09T01:39:38.384Z,15.27
2022-08-09T01:40:38.277Z,15.24
2022-08-09T01:41:38.260Z,15.23
2022-08-09T01:42:39.247Z,15.26
2022-08-09T01:43:50.251Z,15.23
2022-08-09T01:44:39.246Z,15.24
2022-08-09T01:45:45.985Z,15.24
2022-08-09T01:46:39.228Z,15.26
2022-08-09T01:47:44.594Z,15.26
2022-08-09T01:48:39.180Z,15.23
2022-08-09T01:49:39.118Z,15.21
2022-08-09T01:50:41.873Z,15.19
2022-08-09T01:51:38.140Z,15.17
2022-08-09T01:52:38.159Z,15.13
2022-08-09T01:53:41.159Z,15.12
2022-08-09T01:54:38.120Z,15.12
2022-08-09T01:55:38.895Z,15.11
2022-08-09T01:56:38.090Z,15.11
2022-08-09T01:57:40.192Z,15.08
2022-08-09T01:58:39.093Z,15.06
2022-08-09T01:59:40.881Z,15.06
2022-08-09T02:00:39.050Z,15.05
2022-08-09T02:01:58.070Z,15.02
2022-08-09T02:02:39.021Z,15.02
2022-08-09T02:03:38.034Z,15.01
2022-08-09T02:04:38.000Z,14.99
2022-08-09T02:06:03.285Z,14.99
2022-08-09T02:06:38.979Z,14.99
2022-08-09T02:08:39.063Z,14.99
2022-08-09T02:08:58.364Z,14.98
2022-08-09T02:09:42.100Z,14.99
2022-08-09T02:10:37.940Z,14.98
2022-08-09T02:11:42.887Z,14.98
2022-08-09T02:12:39.338Z,14.95
2022-08-09T02:13:40.278Z,14.98
2022-08-09T02:14:37.911Z,14.94
2022-08-09T02:15:50.637Z,14.88
2022-08-09T02:17:00.109Z,14.84
2022-08-09T02:18:01.328Z,14.83
2022-08-09T02:18:38.851Z,14.81
2022-08-09T02:19:39.079Z,14.80
2022-08-09T02:20:38.822Z,14.80
2022-08-09T02:21:38.348Z,14.81
2022-08-09T02:22:37.815Z,14.81
2022-08-09T02:23:42.969Z,14.78
2022-08-09T02:24:38.774Z,14.78
2022-08-09T02:25:42.393Z,14.75
2022-08-09T02:26:38.782Z,14.74
2022-08-09T02:27:43.457Z,14.71
2022-08-09T02:28:38.743Z,14.69
2022-08-09T02:29:37.724Z,14.72
2022-08-09T02:30:37.720Z,14.69
2022-08-09T02:31:37.703Z,14.67
2022-08-09T02:32:37.706Z,14.65
2022-08-09T02:34:06.306Z,14.65
2022-08-09T02:34:41.485Z,14.67
2022-08-09T02:36:01.986Z,14.68
2022-08-09T02:36:38.656Z,14.69
2022-08-09T02:37:37.656Z,14.69
2022-08-09T02:38:37.626Z,14.78
2022-08-09T02:39:42.553Z,14.83
2022-08-09T02:40:38.655Z,14.83
2022-08-09T02:41:37.586Z,14.80
2022-08-09T02:42:37.605Z,14.81
2022-08-09T02:43:42.428Z,14.81
2022-08-09T02:44:38.555Z,14.78
2022-08-09T02:45:37.547Z,14.78
2022-08-09T02:46:37.539Z,14.78
2022-08-09T02:47:58.121Z,14.75
2022-08-09T02:48:38.516Z,14.72
2022-08-09T02:49:41.469Z,14.69
2022-08-09T02:50:37.500Z,14.69
2022-08-09T02:51:40.566Z,14.69
2022-08-09T02:52:37.468Z,14.71
2022-08-09T02:53:37.477Z,14.71
2022-08-09T02:54:54.004Z,14.71
2022-08-09T02:55:46.221Z,14.69
2022-08-09T02:56:38.426Z,14.68
2022-08-09T02:57:40.576Z,14.71
2022-08-09T02:58:38.432Z,14.72
2022-08-09T02:59:37.390Z,14.71
2022-08-09T03:00:39.532Z,14.71
2022-08-09T03:01:58.528Z,14.71
2022-08-09T03:02:38.418Z,14.72
2022-08-09T03:04:17.192Z,14.72
2022-08-09T03:04:38.370Z,14.72
2022-08-09T03:05:37.321Z,14.69
2022-08-09T03:06:37.311Z,14.71
2022-08-09T03:07:37.300Z,14.72
2022-08-09T03:08:44.121Z,14.72
2022-08-09T03:09:37.308Z,14.72
2022-08-09T03:10:38.271Z,14.74
2022-08-09T03:12:05.992Z,14.75
2022-08-09T03:12:38.248Z,14.80
2022-08-09T03:13:43.651Z,14.80
2022-08-09T03:14:38.241Z,14.78
2022-08-09T03:15:40.617Z,14.75
2022-08-09T03:16:41.750Z,14.78
2022-08-09T03:17:38.190Z,14.74
2022-08-09T03:18:38.306Z,14.74
2022-08-09T03:19:52.808Z,14.72
2022-08-09T03:20:38.184Z,14.71
2022-08-09T03:21:39.774Z,14.71
2022-08-09T03:22:41.891Z,14.71
2022-08-09T03:23:38.132Z,14.71
2022-08-09T03:24:51.075Z,14.72
2022-08-09T03:26:03.401Z,14.69
2022-08-09T03:26:44.919Z,14.69
2022-08-09T03:27:45.149Z,14.71
2022-08-09T03:28:38.064Z,14.69
2022-08-09T03:29:57.156Z,14.68
2022-08-09T03:30:38.071Z,14.65
2022-08-09T03:31:42.724Z,14.65
2022-08-09T03:32:38.023Z,14.67
2022-08-09T03:33:54.948Z,14.64
2022-08-09T03:34:38.006Z,14.64
2022-08-09T03:35:44.390Z,14.64
2022-08-09T03:36:38.004Z,14.65
2022-08-09T03:37:56.205Z,14.67
2022-08-09T03:38:41.990Z,14.67
2022-08-09T03:39:38.392Z,14.65
2022-08-09T03:40:36.974Z,14.67
2022-08-09T03:41:48.251Z,14.67
2022-08-09T03:42:37.916Z,14.69
2022-08-09T03:43:36.906Z,14.69
2022-08-09T03:44:36.896Z,14.69
2022-08-09T03:46:04.093Z,14.72
2022-08-09T03:46:37.907Z,14.71
2022-08-09T03:47:40.035Z,14.71
2022-08-09T03:48:50.988Z,14.72
2022-08-09T03:49:37.837Z,14.71
2022-08-09T03:50:36.826Z,14.69
2022-08-09T03:51:57.037Z,14.68
2022-08-09T03:52:37.837Z,14.68
2022-08-09T03:53:37.018Z,14.67
2022-08-09T03:54:38.668Z,14.67
2022-08-09T03:55:40.854Z,14.68
2022-08-09T03:56:37.770Z,14.71
2022-08-09T03:57:44.730Z,14.72
2022-08-09T03:58:37.738Z,14.72
2022-08-09T03:59:53.567Z,14.74
2022-08-09T04:00:37.775Z,14.72
2022-08-09T04:01:36.711Z,14.74
2022-08-09T04:02:37.104Z,14.72
2022-08-09T04:04:00.614Z,14.71
2022-08-09T04:04:38.786Z,14.69
2022-08-09T04:05:40.351Z,14.71
2022-08-09T04:06:36.656Z,14.71
2022-08-09T04:07:52.502Z,14.71
2022-08-09T04:08:37.631Z,14.74
2022-08-09T04:09:47.429Z,14.72
2022-08-09T04:10:37.617Z,14.74
2022-08-09T04:11:36.591Z,14.78
2022-08-09T04:12:36.588Z,14.81
2022-08-09T04:13:44.943Z,14.81
2022-08-09T04:15:00.615Z,14.78
2022-08-09T04:16:18.350Z,14.78
2022-08-09T04:16:37.543Z,14.80
2022-08-09T04:17:36.528Z,14.80
2022-08-09T04:18:36.541Z,14.78
2022-08-09T04:19:42.799Z,14.75
2022-08-09T04:20:37.499Z,14.78
2022-08-09T04:21:40.165Z,14.80
2022-08-09T04:22:36.611Z,14.78
2022-08-09T04:23:37.532Z,14.83
2022-08-09T04:24:36.521Z,14.90
2022-08-09T04:25:36.441Z,14.87
2022-08-09T04:26:38.056Z,14.86
2022-08-09T04:27:37.911Z,14.86
2022-08-09T04:28:36.687Z,14.81
2022-08-09T04:29:37.393Z,14.83
2022-08-09T04:30:36.383Z,14.81
2022-08-09T04:31:37.559Z,14.81
2022-08-09T04:32:37.461Z,14.81
2022-08-09T04:33:52.924Z,14.83
2022-08-09T04:34:37.342Z,14.84
2022-08-09T04:35:37.324Z,14.84
2022-08-09T04:36:37.322Z,14.86
2022-08-09T04:37:45.886Z,14.86
2022-08-09T04:38:37.341Z,14.87
2022-08-09T04:39:40.647Z,14.84
2022-08-09T04:40:36.793Z,14.86
2022-08-09T04:41:43.615Z,14.87
2022-08-09T04:42:37.252Z,14.86
2022-08-09T04:43:36.244Z,14.90
2022-08-09T04:44:37.264Z,14.90
2022-08-09T04:45:53.298Z,14.90
2022-08-09T04:46:38.198Z,14.93
2022-08-09T04:47:59.393Z,14.94
2022-08-09T04:48:37.186Z,14.94
2022-08-09T04:49:53.483Z,14.98
2022-08-09T04:50:37.809Z,15.05
2022-08-09T04:51:36.225Z,15.06
2022-08-09T04:52:36.452Z,15.15
2022-08-09T04:53:36.124Z,15.17
2022-08-09T04:54:36.116Z,15.21
2022-08-09T04:55:39.637Z,15.26
2022-08-09T04:56:37.095Z,15.26
2022-08-09T04:57:59.377Z,15.26
2022-08-09T04:58:37.075Z,15.28
2022-08-09T04:59:36.063Z,15.31
2022-08-09T05:00:36.170Z,15.31
2022-08-09T05:01:36.036Z,15.31
2022-08-09T05:02:36.035Z,15.33
2022-08-09T05:03:42.567Z,15.33
2022-08-09T05:04:37.066Z,15.35
2022-08-09T05:05:52.547Z,15.35
2022-08-09T05:06:37.096Z,15.39
2022-08-09T05:07:35.968Z,15.42
2022-08-09T05:08:36.198Z,15.46
2022-08-09T05:09:45.273Z,15.48
2022-08-09T05:10:37.147Z,15.52
2022-08-09T05:11:36.114Z,15.54
2022-08-09T05:12:36.238Z,15.59
2022-08-09T05:13:38.807Z,15.61
2022-08-09T05:14:36.026Z,15.63
2022-08-09T05:15:39.392Z,15.67
2022-08-09T05:16:58.593Z,15.68
2022-08-09T05:18:37.955Z,15.68
2022-08-09T05:18:42.815Z,15.72
2022-08-09T05:19:46.103Z,15.75
2022-08-09T05:20:36.828Z,15.78
2022-08-09T05:21:46.584Z,15.84
2022-08-09T05:23:55.319Z,15.85
2022-08-09T05:24:01.498Z,15.88
2022-08-09T05:24:36.781Z,15.92
2022-08-09T05:25:35.773Z,15.97
2022-08-09T05:26:36.970Z,16.00
2022-08-09T05:27:45.447Z,16.00
2022-08-09T05:28:36.741Z,16.03
2022-08-09T05:29:37.212Z,16.06
2022-08-09T05:30:36.511Z,16.09
2022-08-09T05:31:44.140Z,16.12
2022-08-09T05:32:36.695Z,16.15
2022-08-09T05:33:36.701Z,16.16
2022-08-09T05:34:36.671Z,16.18
2022-08-09T05:35:39.071Z,16.22
2022-08-09T05:36:36.650Z,16.23
2022-08-09T05:37:38.244Z,16.27
2022-08-09T05:38:39.139Z,16.25
2022-08-09T05:39:42.894Z,16.27
2022-08-09T05:40:36.604Z,16.31
2022-08-09T05:41:35.592Z,16.35
2022-08-09T05:42:35.862Z,16.42
2022-08-09T05:43:35.592Z,16.41
2022-08-09T05:44:35.800Z,16.41
2022-08-09T05:45:52.585Z,16.44
2022-08-09T05:46:36.535Z,16.49
2022-08-09T05:47:35.524Z,16.52
2022-08-09T05:48:36.514Z,16.58
2022-08-09T05:50:23.919Z,16.62
2022-08-09T05:50:51.032Z,16.65
2022-08-09T05:51:46.138Z,16.65
2022-08-09T05:52:38.546Z,16.70
2022-08-09T05:53:40.829Z,16.71
2022-08-09T05:54:36.474Z,16.77
2022-08-09T05:55:35.436Z,16.80
2022-08-09T05:56:35.426Z,16.83
2022-08-09T05:57:51.404Z,16.86
2022-08-09T05:58:36.407Z,16.88
2022-08-09T05:59:35.386Z,16.89
2022-08-09T06:00:35.415Z,16.93
2022-08-09T06:01:42.873Z,16.96
2022-08-09T06:02:36.675Z,16.95
2022-08-09T06:03:43.999Z,16.98
2022-08-09T06:04:36.339Z,17.00
2022-08-09T06:05:56.858Z,17.06
2022-08-09T06:06:36.315Z,17.10
2022-08-09T06:07:35.308Z,17.14
2022-08-09T06:08:35.298Z,17.17
2022-08-09T06:09:54.052Z,17.23
2022-08-09T06:10:36.295Z,17.25
2022-08-09T06:11:41.163Z,17.23
2022-08-09T06:12:36.526Z,17.23
2022-08-09T06:13:35.237Z,17.26
2022-08-09T06:14:35.227Z,17.29
2022-08-09T06:15:35.210Z,17.29
2022-08-09T06:16:35.240Z,17.28
2022-08-09T06:17:40.144Z,17.32
2022-08-09T06:18:36.470Z,17.36
2022-08-09T06:19:35.167Z,17.43
2022-08-09T06:20:35.159Z,17.46
2022-08-09T06:21:35.171Z,17.51
2022-08-09T06:22:35.665Z,17.55
2022-08-09T06:23:57.750Z,17.63
2022-08-09T06:24:36.118Z,17.63
2022-08-09T06:25:35.101Z,17.67
2022-08-09T06:26:35.091Z,17.69
2022-08-09T06:27:43.143Z,17.73
2022-08-09T06:28:36.072Z,17.76
2022-08-09T06:29:48.137Z,17.79
2022-08-09T06:30:36.050Z,17.81
2022-08-09T06:31:40.173Z,17.85
2022-08-09T06:33:00.790Z,17.88
2022-08-09T06:33:40.730Z,17.88
2022-08-09T06:34:36.196Z,17.91
2022-08-09T06:35:56.521Z,17.94
2022-08-09T06:36:36.011Z,17.97
2022-08-09T06:37:53.284Z,18.03
2022-08-09T06:38:37.534Z,18.06
2022-08-09T06:39:48.980Z,18.09
2022-08-09T06:40:35.957Z,18.13
2022-08-09T06:41:58.824Z,18.17
2022-08-09T06:42:44.816Z,18.21
2022-08-09T06:43:35.894Z,18.22
2022-08-09T06:44:34.893Z,18.25
2022-08-09T06:46:06.223Z,18.31
2022-08-09T06:46:40.269Z,18.34
2022-08-09T06:47:40.037Z,18.39
2022-08-09T06:48:35.865Z,18.42
2022-08-09T06:50:11.539Z,18.43
2022-08-09T06:50:35.827Z,18.46
2022-08-09T06:51:39.897Z,18.47
2022-08-09T06:52:35.796Z,18.49
2022-08-09T06:53:38.381Z,18.50
2022-08-09T06:54:34.789Z,18.57
2022-08-09T06:55:34.765Z,18.61
2022-08-09T06:56:34.758Z,18.62
2022-08-09T06:58:01.423Z,18.67
2022-08-09T07:00:46.776Z,18.65
2022-08-09T07:00:48.790Z,18.74
2022-08-09T07:00:54.789Z,18.70
2022-08-09T07:01:54.318Z,18.77
2022-08-09T07:02:35.880Z,18.82
2022-08-09T07:03:39.664Z,18.86
2022-08-09T07:04:35.678Z,18.90
2022-08-09T07:06:02.350Z,18.95
2022-08-09T07:06:35.646Z,18.99
2022-08-09T07:07:59.949Z,19.02
2022-08-09T07:08:37.396Z,19.06
2022-08-09T07:09:55.405Z,19.06
2022-08-09T07:10:35.598Z,19.13
2022-08-09T07:11:52.007Z,19.14
2022-08-09T07:12:38.590Z,19.17
2022-08-09T07:14:04.105Z,19.21
2022-08-09T07:14:35.578Z,19.24
2022-08-09T07:16:38.529Z,19.31
2022-08-09T07:16:42.609Z,19.35
2022-08-09T07:17:39.584Z,19.38
2022-08-09T07:18:34.511Z,19.40
2022-08-09T07:19:41.575Z,19.42
2022-08-09T07:20:34.515Z,19.47
2022-08-09T07:21:35.477Z,19.55
2022-08-09T07:22:36.257Z,19.58
2022-08-09T07:23:35.995Z,19.66
2022-08-09T07:24:39.896Z,19.69
2022-08-09T07:25:38.892Z,19.75
2022-08-09T07:26:35.425Z,19.76
2022-08-09T07:27:43.008Z,19.84
2022-08-09T07:28:35.621Z,19.86
2022-08-09T07:29:38.047Z,19.91
2022-08-09T07:30:35.397Z,19.94
2022-08-09T07:31:38.488Z,19.98
2022-08-09T07:32:35.627Z,20.02
2022-08-09T07:33:53.057Z,20.08
2022-08-09T07:34:35.330Z,20.13
2022-08-09T07:35:39.687Z,20.16
2022-08-09T07:36:35.318Z,20.20
2022-08-09T07:37:42.812Z,20.20
2022-08-09T07:38:35.292Z,20.24
2022-08-09T07:39:40.981Z,20.28
2022-08-09T07:40:54.144Z,20.33
2022-08-09T07:41:38.676Z,20.38
2022-08-09T07:42:34.302Z,20.42
2022-08-09T07:43:41.340Z,20.46
2022-08-09T07:44:52.951Z,20.50
2022-08-09T07:45:40.001Z,20.53
2022-08-09T07:46:37.380Z,20.58
2022-08-09T07:47:49.669Z,20.59
2022-08-09T07:48:35.172Z,20.65
2022-08-09T07:49:34.163Z,20.68
2022-08-09T07:50:36.754Z,20.72
2022-08-09T07:52:03.122Z,20.79
2022-08-09T07:52:35.790Z,20.81
2022-08-09T07:53:45.119Z,20.87
2022-08-09T07:54:35.117Z,20.93
2022-08-09T07:55:41.600Z,20.93
2022-08-09T07:56:35.883Z,20.98
2022-08-09T07:57:35.723Z,21.04
2022-08-09T07:58:34.070Z,21.08
2022-08-09T07:59:45.721Z,21.13
2022-08-09T08:00:36.505Z,21.20
2022-08-09T08:01:34.597Z,21.24
2022-08-09T08:02:34.326Z,21.30
2022-08-09T08:03:36.739Z,21.36
2022-08-09T08:04:34.002Z,21.41
2022-08-09T08:05:53.608Z,21.46
2022-08-09T08:06:35.218Z,21.51
2022-08-09T08:08:43.003Z,21.54
2022-08-09T08:09:01.276Z,21.60
2022-08-09T08:09:45.150Z,21.63
2022-08-09T08:10:34.926Z,21.69
2022-08-09T08:12:10.670Z,21.72
2022-08-09T08:12:35.127Z,21.74
2022-08-09T08:13:39.940Z,21.76
2022-08-09T08:14:34.887Z,21.81
2022-08-09T08:15:35.557Z,21.83
2022-08-09T08:16:34.558Z,21.91
2022-08-09T08:17:52.260Z,21.94
2022-08-09T08:18:34.867Z,21.95
2022-08-09T08:19:33.837Z,22.01
2022-08-09T08:20:33.817Z,22.06
2022-08-09T08:21:33.813Z,22.09
2022-08-09T08:22:34.892Z,22.13
2022-08-09T08:23:34.850Z,22.14
2022-08-09T08:24:35.287Z,22.17
2022-08-09T08:25:43.902Z,22.20
2022-08-09T08:26:54.983Z,22.22
2022-08-09T08:27:40.401Z,22.28
2022-08-09T08:28:35.079Z,22.32
2022-08-09T08:29:39.660Z,22.34
2022-08-09T08:30:34.710Z,22.38
2022-08-09T08:32:02.214Z,22.41
2022-08-09T08:32:34.694Z,22.44
2022-08-09T08:33:40.634Z,22.46
2022-08-09T08:34:36.566Z,22.47
2022-08-09T08:35:58.617Z,22.49
2022-08-09T08:36:34.645Z,22.52
2022-08-09T08:37:41.025Z,22.52
2022-08-09T08:38:34.623Z,22.54
2022-08-09T08:39:39.715Z,22.57
2022-08-09T08:40:34.605Z,22.60
2022-08-09T08:41:50.442Z,22.67
2022-08-09T08:42:34.653Z,22.69
2022-08-09T08:43:33.573Z,22.74
2022-08-09T08:44:33.575Z,22.75
2022-08-09T08:45:37.129Z,22.78
2022-08-09T08:46:59.381Z,22.83
2022-08-09T08:47:34.526Z,22.87
2022-08-09T08:48:34.515Z,22.92
2022-08-09T08:49:47.250Z,22.97
2022-08-09T08:50:34.518Z,23.01
2022-08-09T08:51:41.542Z,23.02
2022-08-09T08:52:58.248Z,23.05
2022-08-09T08:53:37.266Z,23.05
2022-08-09T08:54:33.469Z,23.07
2022-08-09T08:55:33.465Z,23.09
2022-08-09T08:56:33.418Z,23.12
2022-08-09T08:57:34.903Z,23.14
2022-08-09T08:58:33.406Z,23.19
2022-08-09T08:59:46.426Z,23.20
2022-08-09T09:00:34.934Z,23.24
2022-08-09T09:01:44.758Z,23.29
2022-08-09T09:02:34.636Z,23.32
2022-08-09T09:03:37.202Z,23.35
2022-08-09T09:04:45.737Z,23.39
2022-08-09T09:05:58.483Z,23.40
2022-08-09T09:06:34.309Z,23.45
2022-08-09T09:07:36.772Z,23.46
2022-08-09T09:08:38.122Z,23.50
2022-08-09T09:09:58.763Z,23.53
2022-08-09T09:10:34.291Z,23.58
2022-08-09T09:11:33.759Z,23.64
2022-08-09T09:12:35.840Z,23.67
2022-08-09T09:13:42.234Z,23.70
2022-08-09T09:14:34.222Z,23.77
2022-08-09T09:15:33.212Z,23.79
2022-08-09T09:16:33.933Z,23.83
2022-08-09T09:17:49.373Z,23.89
2022-08-09T09:18:34.172Z,23.92
2022-08-09T09:19:41.784Z,23.95
2022-08-09T09:20:34.154Z,23.97
2022-08-09T09:21:43.462Z,24.01
2022-08-09T09:22:34.210Z,24.04
2022-08-09T09:23:33.124Z,24.04
2022-08-09T09:24:34.638Z,24.00
2022-08-09T09:26:05.066Z,23.98
2022-08-09T09:26:34.133Z,24.00
2022-08-09T09:28:06.018Z,24.01
2022-08-09T09:29:03.073Z,24.04
2022-08-09T09:29:57.997Z,24.05
2022-08-09T09:30:40.151Z,24.05
2022-08-09T09:32:06.013Z,24.04
2022-08-09T09:32:34.901Z,24.10
2022-08-09T09:33:44.343Z,24.13
2022-08-09T09:34:33.997Z,24.17
2022-08-09T09:35:33.235Z,24.19
2022-08-09T09:36:32.986Z,24.24
2022-08-09T09:37:32.977Z,24.27
2022-08-09T09:38:36.714Z,24.34
2022-08-09T09:39:50.213Z,24.38
2022-08-09T09:40:34.021Z,24.44
2022-08-09T09:41:40.003Z,24.53
2022-08-09T09:42:34.173Z,24.64
2022-08-09T09:43:41.374Z,24.80
2022-08-09T09:44:34.099Z,24.94
2022-08-09T09:45:32.931Z,25.05
2022-08-09T09:46:51.365Z,25.12
2022-08-09T09:47:37.960Z,25.17
2022-08-09T09:48:33.848Z,25.25
2022-08-09T09:50:06.839Z,25.32
2022-08-09T09:50:33.841Z,25.37
2022-08-09T09:51:38.466Z,25.47
2022-08-09T09:52:37.457Z,25.53
2022-08-09T09:53:57.798Z,25.57
2022-08-09T09:54:33.802Z,25.65
2022-08-09T09:55:33.583Z,25.64
2022-08-09T09:56:33.723Z,25.74
2022-08-09T09:58:01.455Z,25.87
2022-08-09T09:58:33.732Z,26.01
2022-08-09T09:59:32.724Z,26.18
2022-08-09T10:00:33.633Z,26.35
2022-08-09T10:01:38.253Z,26.57
2022-08-09T10:02:33.928Z,26.74
2022-08-09T10:03:32.725Z,26.89
2022-08-09T10:04:32.689Z,27.11
2022-08-09T10:06:04.074Z,27.33
2022-08-09T10:06:33.664Z,27.58
2022-08-09T10:07:32.777Z,27.79
2022-08-09T10:08:32.630Z,28.06
2022-08-09T10:09:33.616Z,28.35
2022-08-09T10:10:32.643Z,28.65
2022-08-09T10:11:59.948Z,28.90
2022-08-09T10:12:33.667Z,29.22
2022-08-09T10:13:44.974Z,29.41
2022-08-09T10:14:33.966Z,29.62
2022-08-09T10:16:09.647Z,29.87
2022-08-09T10:16:56.954Z,30.09
2022-08-09T10:17:51.025Z,30.33
2022-08-09T10:18:33.519Z,30.21
2022-08-09T10:19:32.508Z,30.45
2022-08-09T10:20:36.046Z,30.74
2022-08-09T10:21:33.480Z,30.96
2022-08-09T10:22:33.419Z,31.24
2022-08-09T10:23:32.470Z,31.55
2022-08-09T10:24:35.663Z,31.85
2022-08-09T10:25:34.507Z,32.11
2022-08-09T10:26:33.433Z,32.33
2022-08-09T10:27:38.534Z,32.62
2022-08-09T10:28:33.429Z,32.86
2022-08-09T10:30:27.211Z,32.99
2022-08-09T10:32:15.251Z,33.13
2022-08-09T10:32:37.325Z,33.36
2022-08-09T10:32:40.301Z,33.53
2022-08-09T10:34:07.820Z,33.70
2022-08-09T10:34:36.004Z,33.86
2022-08-09T10:35:32.335Z,33.92
2022-08-09T10:36:32.321Z,34.04
2022-08-09T10:37:32.883Z,34.29
2022-08-09T10:38:41.713Z,34.54
2022-08-09T10:39:40.549Z,34.48
2022-08-09T10:40:36.489Z,34.16
2022-08-09T10:41:33.267Z,34.27
2022-08-09T10:42:32.541Z,34.00
2022-08-09T10:43:47.026Z,33.94
2022-08-09T10:44:33.256Z,34.09
2022-08-09T10:45:32.246Z,34.29
2022-08-09T10:46:32.217Z,34.56
2022-08-09T10:48:16.848Z,34.81
2022-08-09T10:48:33.196Z,34.72
2022-08-09T10:49:50.117Z,34.77
2022-08-09T10:50:33.245Z,35.02
2022-08-09T10:51:40.814Z,35.33
2022-08-09T10:52:33.324Z,35.23
2022-08-09T10:53:38.078Z,35.39
2022-08-09T10:54:33.151Z,35.57
2022-08-09T10:55:49.186Z,35.62
2022-08-09T10:56:33.104Z,35.76
2022-08-09T10:57:32.276Z,35.72
2022-08-09T10:58:32.413Z,35.91
2022-08-09T10:59:43.182Z,36.06
2022-08-09T11:00:33.084Z,36.20
2022-08-09T11:03:14.512Z,36.26
2022-08-09T11:03:16.372Z,36.20
2022-08-09T11:03:49.757Z,36.19
2022-08-09T11:04:33.113Z,36.14
2022-08-09T11:05:32.080Z,36.33
2022-08-09T11:06:32.005Z,36.46
2022-08-09T11:07:54.970Z,36.45
2022-08-09T11:08:33.237Z,36.39
2022-08-09T11:09:36.334Z,36.26
2022-08-09T11:10:32.985Z,35.79
2022-08-09T11:11:31.988Z,35.45
2022-08-09T11:12:32.228Z,35.51
2022-08-09T11:13:49.807Z,35.64
2022-08-09T11:14:32.919Z,35.95
2022-08-09T11:15:34.153Z,36.29
2022-08-09T11:16:33.623Z,36.58
2022-08-09T11:17:31.932Z,36.85
2022-08-09T11:18:31.880Z,36.98
2022-08-09T11:20:07.984Z,37.20
2022-08-09T11:20:32.860Z,37.26
2022-08-09T11:21:31.857Z,36.57
2022-08-09T11:22:31.841Z,36.23
2022-08-09T11:23:31.865Z,36.31
2022-08-09T11:24:31.822Z,36.64
2022-08-09T11:25:36.125Z,36.76
2022-08-09T11:26:32.802Z,36.98
2022-08-09T11:28:08.061Z,37.12
2022-08-09T11:28:34.574Z,37.13
2022-08-09T11:30:32.935Z,37.05
2022-08-09T11:30:34.379Z,37.24
2022-08-09T11:31:34.099Z,37.54
2022-08-09T11:32:32.998Z,37.74
2022-08-09T11:33:31.741Z,36.95
2022-08-09T11:34:31.726Z,37.20
2022-08-09T11:35:35.000Z,36.92
2022-08-09T11:36:35.439Z,36.72
2022-08-09T11:37:41.591Z,36.58
2022-08-09T11:38:34.938Z,35.86
2022-08-09T11:39:38.128Z,36.15
2022-08-09T11:40:32.670Z,36.60
2022-08-09T11:41:38.055Z,36.61
2022-08-09T11:42:32.744Z,36.99
2022-08-09T11:43:32.048Z,37.39
2022-08-09T11:44:31.630Z,37.59
2022-08-09T11:45:37.756Z,37.66
2022-08-09T11:46:33.616Z,38.04
2022-08-09T11:47:31.611Z,38.14
2022-08-09T11:48:31.707Z,38.14
2022-08-09T11:49:42.884Z,38.36
2022-08-09T11:50:55.431Z,38.68
2022-08-09T11:52:56.523Z,39.01
2022-08-09T11:53:00.786Z,39.14
2022-08-09T11:53:59.797Z,39.10
2022-08-09T11:54:34.797Z,39.24
2022-08-09T11:55:35.018Z,39.36
2022-08-09T11:56:34.510Z,39.47
2022-08-09T11:57:47.592Z,39.64
2022-08-09T11:58:33.943Z,39.67
2022-08-09T11:59:33.589Z,39.76
2022-08-09T12:00:31.682Z,39.70
2022-08-09T12:02:15.948Z,39.71
2022-08-09T12:02:37.079Z,39.30
2022-08-09T12:03:56.786Z,39.01
2022-08-09T12:04:37.367Z,38.63
2022-08-09T12:05:37.627Z,38.04
2022-08-09T12:06:35.111Z,38.12
2022-08-09T12:07:41.702Z,37.99
2022-08-09T12:08:32.398Z,38.29
2022-08-09T12:09:34.044Z,38.68
2022-08-09T12:10:39.259Z,38.55
2022-08-09T12:11:37.937Z,38.51
2022-08-09T12:12:32.352Z,38.83
2022-08-09T12:14:09.977Z,39.01
2022-08-09T12:14:40.724Z,38.67
2022-08-09T12:15:49.164Z,39.05
2022-08-09T12:16:38.551Z,39.35
2022-08-09T12:17:43.377Z,39.58
2022-08-09T12:18:33.458Z,39.90
2022-08-09T12:19:31.293Z,40.27
2022-08-09T12:20:31.328Z,39.93
2022-08-09T12:21:38.752Z,39.78
2022-08-09T12:22:32.519Z,39.84
2022-08-09T12:23:57.892Z,39.27
2022-08-09T12:24:32.244Z,38.38
2022-08-09T12:25:35.833Z,38.30
2022-08-09T12:26:32.226Z,38.66
2022-08-09T12:29:10.360Z,39.03
2022-08-09T12:29:13.080Z,39.28
2022-08-09T12:29:33.133Z,39.28
2022-08-09T12:30:36.879Z,39.67
2022-08-09T12:32:02.118Z,40.07
2022-08-09T12:32:32.536Z,40.42
2022-08-09T12:33:51.152Z,40.56
2022-08-09T12:34:32.157Z,40.19
2022-08-09T12:35:36.046Z,39.56
2022-08-09T12:36:34.047Z,39.70
2022-08-09T12:37:31.119Z,39.59
2022-08-09T12:38:37.721Z,39.58
2022-08-09T12:39:32.158Z,39.35
2022-08-09T12:40:32.122Z,38.82
2022-08-09T12:41:38.293Z,38.29
2022-08-09T12:42:32.306Z,38.33
2022-08-09T12:44:06.704Z,38.78
2022-08-09T12:44:37.494Z,39.10
2022-08-09T12:45:34.031Z,39.44
2022-08-09T12:46:31.042Z,39.67
2022-08-09T12:47:37.063Z,39.98
2022-08-09T12:48:33.452Z,40.29
2022-08-09T12:49:31.011Z,40.34
2022-08-09T12:50:31.046Z,39.76
2022-08-09T12:52:00.240Z,39.67
2022-08-09T12:52:32.030Z,40.05